.
WxDataArchive / Data Records for 2006-01-11
2006-01-10 January 2006 2006-01-12

Data Records for Wednesday, 11 January 2006

Time	Temp	Chill	HIndex	Humid	Dewpt	 Wind 	HiWind	WindDir	Rain 	Barom 
-----	----	-----	------	-----	-----	------	------	-------	-----	----- 
00:00	39.2	39.2	39.2	95	37.9	1	2	90	0.00	29.982 
00:05	39.2	39.2	39.2	95	37.9	0	2	90	0.00	29.982 
00:10	39.2	39.2	39.2	95	37.9	1	3	90	0.00	29.982 
00:15	39.3	39.3	39.3	95	38.0	1	4	90	0.00	29.971 
00:20	39.3	39.3	39.3	95	38.0	1	3	90	0.00	29.971 
00:25	39.3	39.3	39.3	95	38.0	1	3	90	0.00	29.971 
00:30	39.3	39.3	39.3	95	38.0	1	3	90	0.00	29.958 
00:35	39.3	39.3	39.3	95	38.0	1	3	90	0.00	29.958 
00:40	39.5	39.5	39.5	95	38.2	2	4	90	0.00	29.958 
00:45	39.5	39.5	39.5	95	38.2	1	3	90	0.00	29.955 
00:50	39.5	39.5	39.5	95	38.2	2	3	90	0.00	29.955 
00:55	39.6	39.6	39.6	95	38.3	1	3	90	0.00	29.955 
01:00	39.6	39.6	39.6	95	38.3	2	5	90	0.00	29.941 
01:05	39.6	39.6	39.6	95	38.3	1	2	90	0.00	29.941 
01:10	39.8	39.8	39.8	95	38.5	1	3	90	0.00	29.941 
01:15	39.8	39.8	39.8	95	38.5	2	3	90	0.00	29.924 
01:20	39.9	39.9	39.9	95	38.6	1	3	90	0.00	29.924 
01:25	39.9	39.9	39.9	95	38.6	2	4	90	0.00	29.924 
01:30	40.1	40.1	40.1	95	38.8	1	2	90	0.00	29.922 
01:35	40.1	40.1	40.1	95	38.8	1	3	68	0.00	29.922 
01:40	40.2	40.2	40.2	95	38.9	2	4	90	0.00	29.922 
01:45	40.2	40.2	40.2	95	38.9	0	2	90	0.00	29.919 
01:50	40.2	40.2	40.2	95	38.9	0	1	90	0.00	29.919 
01:55	40.2	40.2	40.2	95	38.9	1	2	90	0.00	29.919 
02:00	40.2	40.2	40.2	95	38.9	0	0	---	0.00	29.908 
02:05	40.2	40.2	40.2	95	38.9	1	2	90	0.00	29.908 
02:10	40.2	40.2	40.2	95	38.9	1	3	90	0.00	29.908 
02:15	40.3	40.3	40.3	95	39.0	0	2	90	0.00	29.907 
02:20	40.3	40.3	40.3	96	39.3	1	2	90	0.00	29.907 
02:25	40.3	40.3	40.3	96	39.3	1	2	90	0.00	29.907 
02:30	40.3	40.3	40.3	96	39.3	0	2	90	0.00	29.914 
02:35	40.5	40.5	40.5	96	39.5	0	1	90	0.00	29.914 
02:40	40.5	40.5	40.5	96	39.5	0	1	90	0.00	29.914 
02:45	40.6	40.6	40.6	96	39.5	1	2	112	0.00	29.924 
02:50	40.6	40.6	40.6	96	39.5	1	2	112	0.00	29.924 
02:55	40.6	40.6	40.6	96	39.5	0	2	135	0.00	29.924 
03:00	40.6	40.6	40.6	96	39.5	0	1	135	0.00	29.915 
03:05	40.6	40.6	40.6	96	39.5	0	1	135	0.00	29.915 
03:10	40.8	40.8	40.8	96	39.7	0	2	135	0.00	29.915 
03:15	40.8	40.8	40.8	96	39.7	1	2	135	0.00	29.904 
03:20	40.9	40.9	40.9	96	39.8	0	2	135	0.01	29.904 
03:25	41.1	41.1	41.1	96	40.0	0	1	135	0.00	29.904 
03:30	41.2	41.2	41.2	96	40.1	0	2	135	0.00	29.902 
03:35	41.8	41.8	41.8	96	40.7	0	2	112	0.00	29.902 
03:40	42.3	42.3	42.3	96	41.2	0	2	112	0.01	29.902 
03:45	42.9	42.9	42.9	96	41.8	0	2	112	0.00	29.893 
03:50	43.9	43.9	43.9	96	42.8	1	7	248	0.00	29.893 
03:55	44.5	44.5	44.5	96	43.4	1	3	135	0.01	29.893 
04:00	44.8	44.8	44.8	96	43.7	1	2	135	0.00	29.880 
04:05	44.9	44.9	44.9	96	43.8	1	3	112	0.00	29.880 
04:10	45.1	45.1	45.1	96	44.0	1	3	112	0.01	29.880 
04:15	45.1	45.1	45.1	96	44.0	1	3	0	0.00	29.879 
04:20	45.2	45.2	45.2	96	44.1	0	2	0	0.01	29.879 
04:25	45.1	45.1	45.1	96	44.0	0	2	0	0.01	29.879 
04:30	45.2	45.2	45.2	96	44.1	0	2	0	0.00	29.869 
04:35	45.2	45.2	45.2	96	44.1	1	3	315	0.00	29.869 
04:40	45.2	45.2	45.2	96	44.1	1	3	90	0.01	29.869 
04:45	45.2	45.2	45.2	96	44.1	1	3	90	0.00	29.862 
04:50	45.2	45.2	45.2	96	44.1	1	4	135	0.00	29.862 
04:55	45.4	45.4	45.4	96	44.3	2	5	90	0.00	29.862 
05:00	45.4	45.4	45.4	96	44.3	2	5	135	0.00	29.852 
05:05	45.4	45.4	45.4	96	44.3	2	3	112	0.00	29.852 
05:10	45.5	45.5	45.5	95	44.2	2	5	112	0.00	29.852 
05:15	45.5	45.5	45.5	95	44.2	2	5	90	0.00	29.839 
05:20	45.5	45.5	45.5	95	44.2	2	4	112	0.00	29.839 
05:25	45.5	45.5	45.5	95	44.2	1	4	112	0.00	29.839 
05:30	45.5	45.5	45.5	94	43.9	2	4	112	0.00	29.837 
05:35	45.5	45.5	45.5	94	43.9	2	4	112	0.00	29.837 
05:40	45.5	45.5	45.5	94	43.9	1	3	135	0.00	29.837 
05:45	45.4	45.4	45.4	94	43.8	1	3	112	0.00	29.835 
05:50	45.4	45.4	45.4	94	43.8	2	5	90	0.00	29.835 
05:55	45.4	45.4	45.4	94	43.8	2	4	90	0.00	29.835 
06:00	45.5	45.5	45.5	94	43.9	2	4	112	0.00	29.822 
06:05	45.5	45.5	45.5	94	43.9	2	5	90	0.00	29.822 
06:10	45.4	45.4	45.4	93	43.5	1	4	90	0.00	29.822 
06:15	45.4	45.4	45.4	93	43.5	2	5	90	0.00	29.821 
06:20	45.4	45.4	45.4	93	43.5	2	7	112	0.00	29.821 
06:25	45.4	45.4	45.4	93	43.5	2	5	112	0.00	29.821 
06:30	45.4	45.4	45.4	93	43.5	2	4	112	0.00	29.814 
06:35	45.4	45.4	45.4	93	43.5	2	6	90	0.00	29.814 
06:40	45.4	45.4	45.4	93	43.5	2	5	90	0.00	29.814 
06:45	45.4	45.4	45.4	93	43.5	3	6	90	0.00	29.806 
06:50	45.4	45.4	45.4	93	43.5	2	4	90	0.00	29.806 
06:55	45.5	45.5	45.5	93	43.6	2	6	90	0.00	29.806 
07:00	45.7	45.7	45.7	93	43.8	2	6	68	0.00	29.806 
07:05	45.7	45.7	45.7	93	43.8	2	4	112	0.01	29.806 
07:10	45.7	45.7	45.7	93	43.8	2	6	90	0.01	29.806 
07:15	45.8	45.8	45.8	93	43.9	3	7	90	0.02	29.807 
07:20	45.5	43.7	45.5	92	43.3	4	14	248	0.01	29.807 
07:25	44.8	44.8	44.8	90	42.0	3	6	248	0.00	29.807 
07:30	44.2	44.2	44.2	89	41.2	3	7	248	0.01	29.830 
07:35	43.8	43.8	43.8	90	41.1	2	5	248	0.00	29.830 
07:40	43.5	43.5	43.5	91	41.0	2	5	248	0.00	29.830 
07:45	43.3	43.3	43.3	91	40.9	2	5	248	0.00	29.836 
07:50	43.2	43.2	43.2	91	40.8	2	6	248	0.00	29.836 
07:55	43.2	43.2	43.2	91	40.8	2	6	248	0.00	29.836 
08:00	43.2	40.2	43.2	91	40.8	5	12	248	0.00	29.836 
08:05	43.3	41.1	43.3	90	40.6	4	9	270	0.00	29.836 
08:10	43.3	40.3	43.3	89	40.3	5	13	248	0.00	29.836 
08:15	43.3	41.1	43.3	89	40.3	4	10	248	0.00	29.839 
08:20	43.3	41.1	43.3	88	40.0	4	9	248	0.00	29.839 
08:25	43.3	41.1	43.3	87	39.7	4	10	270	0.00	29.839 
08:30	43.3	40.3	43.3	86	39.4	5	17	248	0.00	29.839 
08:35	43.5	40.6	43.5	85	39.3	5	11	270	0.00	29.839 
08:40	43.5	41.4	43.5	85	39.3	4	9	248	0.00	29.839 
08:45	43.3	43.3	43.3	85	39.1	3	8	248	0.00	29.842 
08:50	43.3	40.3	43.3	84	38.8	5	12	248	0.00	29.842 
08:55	43.3	41.1	43.3	85	39.1	4	10	248	0.00	29.842 
09:00	43.3	41.1	43.3	85	39.1	4	10	248	0.00	29.843 
09:05	43.3	41.1	43.3	85	39.1	4	10	248	0.00	29.843 
09:10	43.3	43.3	43.3	85	39.1	3	6	248	0.00	29.843 
09:15	43.2	43.2	43.2	85	39.0	3	10	248	0.00	29.844 
09:20	43.1	40.9	43.1	86	39.2	4	11	248	0.00	29.844 
09:25	43.1	43.1	43.1	86	39.2	3	6	248	0.00	29.844 
09:30	42.8	39.8	42.8	87	39.2	5	10	248	0.00	29.853 
09:35	42.5	39.4	42.5	88	39.2	5	13	248	0.01	29.853 
09:40	42.2	39.1	42.2	89	39.2	5	10	248	0.00	29.853 
09:45	41.9	39.5	41.9	90	39.2	4	11	248	0.00	29.857 
09:50	41.8	39.4	41.8	90	39.1	4	11	248	0.00	29.857 
09:55	41.8	39.4	41.8	89	38.8	4	10	248	0.00	29.857 
10:00	41.9	41.9	41.9	88	38.6	3	9	248	0.00	29.858 
10:05	41.9	39.5	41.9	87	38.3	4	9	248	0.00	29.858 
10:10	41.9	38.0	41.9	85	37.7	6	12	248	0.00	29.858 
10:15	41.9	38.7	41.9	86	38.0	5	12	248	0.00	29.861 
10:20	41.8	37.9	41.8	85	37.6	6	14	248	0.00	29.861 
10:25	41.6	38.4	41.6	83	36.8	5	12	248	0.00	29.861 
10:30	41.3	36.7	41.3	81	35.9	7	15	248	0.00	29.867 
10:35	41.2	36.6	41.2	79	35.2	7	14	248	0.00	29.867 
10:40	40.9	36.2	40.9	79	34.9	7	15	248	0.00	29.867 
10:45	40.6	36.5	40.6	80	34.9	6	14	248	0.00	29.872 
10:50	40.5	35.7	40.5	79	34.5	7	16	248	0.00	29.872 
10:55	40.6	37.2	40.6	79	34.6	5	10	248	0.00	29.872 
11:00	40.6	36.5	40.6	77	34.0	6	14	248	0.00	29.871 
11:05	40.8	36.1	40.8	77	34.2	7	17	248	0.00	29.871 
11:10	40.8	36.1	40.8	75	33.5	7	15	270	0.00	29.871 
11:15	40.3	36.1	40.3	77	33.7	6	18	248	0.00	29.882 
11:20	39.9	35.6	39.9	78	33.6	6	11	270	0.00	29.882 
11:25	39.8	37.1	39.8	78	33.5	4	11	248	0.00	29.882 
11:30	39.6	36.9	39.6	79	33.6	4	10	248	0.00	29.874 
11:35	39.6	36.0	39.6	79	33.6	5	12	248	0.00	29.874 
11:40	39.3	34.9	39.3	79	33.3	6	13	248	0.00	29.874 
11:45	38.9	33.8	38.9	79	33.0	7	16	270	0.00	29.873 
11:50	38.8	33.1	38.8	79	32.9	8	16	270	0.00	29.873 
11:55	38.5	34.0	38.5	80	32.9	6	13	270	0.00	29.873 
12:00	38.5	34.0	38.5	80	32.9	6	12	248	0.00	29.870 
12:05	38.5	34.7	38.5	81	33.2	5	12	248	0.00	29.870 
12:10	38.3	33.7	38.3	80	32.7	6	13	270	0.00	29.870 
12:15	38.3	34.5	38.3	81	33.0	5	13	248	0.00	29.858 
12:20	38.3	34.5	38.3	81	33.0	5	11	248	0.00	29.858 
12:25	38.2	34.4	38.2	82	33.2	5	15	270	0.00	29.858 
12:30	37.9	33.3	37.9	84	33.5	6	14	270	0.00	29.857 
12:35	37.6	32.9	37.6	85	33.5	6	12	248	0.00	29.857 
12:40	37.8	33.9	37.8	86	34.0	5	13	270	0.00	29.857 
12:45	38.0	34.1	38.0	85	33.9	5	12	248	0.00	29.844 
12:50	38.0	33.4	38.0	84	33.6	6	14	248	0.00	29.844 
12:55	38.2	35.2	38.2	84	33.8	4	11	248	0.00	29.844 
13:00	38.2	35.2	38.2	82	33.2	4	12	248	0.00	29.841 
13:05	38.2	34.4	38.2	82	33.2	5	12	270	0.00	29.841 
13:10	38.0	33.4	38.0	81	32.7	6	12	248	0.00	29.841 
13:15	38.2	33.0	38.2	80	32.6	7	17	248	0.00	29.843 
13:20	38.0	32.7	38.0	80	32.4	7	18	270	0.00	29.843 
13:25	38.0	32.7	38.0	79	32.1	7	15	270	0.00	29.843 
13:30	38.0	33.4	38.0	80	32.4	6	12	270	0.00	29.846 
13:35	38.0	34.1	38.0	80	32.4	5	14	248	0.00	29.846 
13:40	38.0	32.7	38.0	80	32.4	7	15	270	0.00	29.846 
13:45	38.0	34.1	38.0	80	32.4	5	13	248	0.00	29.845 
13:50	38.0	34.1	38.0	81	32.7	5	12	270	0.00	29.845 
13:55	38.0	32.7	38.0	81	32.7	7	18	248	0.00	29.845 
14:00	38.0	34.1	38.0	81	32.7	5	11	270	0.00	29.856 
14:05	37.9	32.0	37.9	80	32.3	8	16	248	0.00	29.856 
14:10	37.9	33.3	37.9	81	32.6	6	15	248	0.00	29.856 
14:15	37.9	34.0	37.9	81	32.6	5	11	270	0.00	29.861 
14:20	37.9	33.3	37.9	81	32.6	6	14	270	0.00	29.861 
14:25	37.9	32.0	37.9	81	32.6	8	17	270	0.00	29.861 
14:30	37.8	33.9	37.8	82	32.8	5	12	270	0.00	29.865 
14:35	37.6	31.7	37.6	82	32.6	8	22	248	0.00	29.865 
14:40	37.6	32.2	37.6	83	32.9	7	22	248	0.00	29.865 
14:45	37.5	33.5	37.5	85	33.4	5	14	270	0.00	29.867 
14:50	37.2	33.2	37.2	86	33.4	5	13	270	0.00	29.867 
14:55	37.0	32.9	37.0	87	33.5	5	14	270	0.00	29.867 
15:00	36.9	33.7	36.9	88	33.7	4	11	248	0.00	29.860 
15:05	36.9	33.7	36.9	88	33.7	4	10	270	0.00	29.860 
15:10	36.9	33.7	36.9	88	33.7	4	10	248	0.00	29.860 
15:15	36.9	32.8	36.9	88	33.7	5	11	270	0.00	29.858 
15:20	36.9	33.7	36.9	88	33.7	4	10	270	0.00	29.858 
15:25	37.0	32.9	37.0	88	33.8	5	14	248	0.00	29.858 
15:30	37.0	33.9	37.0	88	33.8	4	9	248	0.00	29.864 
15:35	37.2	34.1	37.2	88	34.0	4	9	248	0.00	29.864 
15:40	37.2	37.2	37.2	88	34.0	3	10	248	0.00	29.864 
15:45	37.2	34.1	37.2	88	34.0	4	11	248	0.00	29.871 
15:50	37.2	32.4	37.2	88	34.0	6	12	248	0.00	29.871 
15:55	37.2	34.1	37.2	88	34.0	4	11	248	0.00	29.871 
16:00	37.2	34.1	37.2	87	33.7	4	10	248	0.00	29.876 
16:05	37.3	34.2	37.3	87	33.8	4	9	248	0.00	29.876 
16:10	37.3	37.3	37.3	87	33.8	3	10	248	0.00	29.876 
16:15	37.5	33.5	37.5	87	34.0	5	16	248	0.00	29.883 
16:20	37.5	34.4	37.5	87	34.0	4	10	248	0.00	29.883 
16:25	37.5	37.5	37.5	88	34.3	3	11	248	0.00	29.883 
16:30	37.3	37.3	37.3	88	34.1	3	6	248	0.00	29.878 
16:35	37.3	34.2	37.3	88	34.1	4	10	248	0.00	29.878 
16:40	37.3	34.2	37.3	88	34.1	4	9	248	0.00	29.878 
16:45	37.3	34.2	37.3	88	34.1	4	11	248	0.00	29.876 
16:50	37.3	37.3	37.3	88	34.1	3	6	248	0.00	29.876 
16:55	37.3	37.3	37.3	87	33.8	3	7	248	0.00	29.876 
17:00	37.5	37.5	37.5	87	34.0	3	8	248	0.00	29.883 
17:05	37.5	37.5	37.5	87	34.0	3	7	248	0.00	29.883 
17:10	37.6	37.6	37.6	87	34.1	3	7	248	0.00	29.883 
17:15	37.6	37.6	37.6	87	34.1	3	10	248	0.00	29.877 
17:20	37.8	34.8	37.8	87	34.3	4	10	248	0.00	29.877 
17:25	37.9	37.9	37.9	87	34.4	3	7	248	0.00	29.877 
17:30	37.9	34.9	37.9	87	34.4	4	11	248	0.00	29.882 
17:35	38.0	38.0	38.0	87	34.5	3	9	248	0.00	29.882 
17:40	38.0	38.0	38.0	87	34.5	2	6	248	0.00	29.882 
17:45	38.0	38.0	38.0	87	34.5	3	10	248	0.00	29.872 
17:50	38.2	38.2	38.2	87	34.7	3	6	248	0.00	29.872 
17:55	38.2	38.2	38.2	87	34.7	3	7	248	0.00	29.872 
18:00	38.2	38.2	38.2	87	34.7	3	10	248	0.00	29.870 
18:05	38.2	38.2	38.2	87	34.7	2	5	225	0.00	29.870 
18:10	38.0	38.0	38.0	87	34.5	1	4	202	0.00	29.870 
18:15	38.0	38.0	38.0	88	34.8	1	4	225	0.00	29.868 
18:20	37.9	37.9	37.9	88	34.7	1	5	225	0.00	29.868 
18:25	38.0	38.0	38.0	88	34.8	2	4	225	0.00	29.868 
18:30	38.0	38.0	38.0	88	34.8	2	9	248	0.00	29.878 
18:35	38.2	38.2	38.2	88	35.0	2	8	248	0.00	29.878 
18:40	38.3	38.3	38.3	88	35.1	2	4	248	0.00	29.878 
18:45	38.3	38.3	38.3	88	35.1	1	5	248	0.00	29.874 
18:50	38.3	38.3	38.3	88	35.1	2	5	248	0.00	29.874 
18:55	38.3	38.3	38.3	88	35.1	2	4	248	0.00	29.874 
19:00	38.5	38.5	38.5	88	35.3	2	9	292	0.00	29.869 
19:05	38.5	38.5	38.5	88	35.3	2	10	248	0.00	29.869 
19:10	38.6	38.6	38.6	87	35.1	3	12	248	0.00	29.869 
19:15	38.6	38.6	38.6	87	35.1	2	10	248	0.00	29.871 
19:20	38.6	35.7	38.6	87	35.1	4	9	248	0.00	29.871 
19:25	38.6	38.6	38.6	87	35.1	3	6	248	0.00	29.871 
19:30	38.6	38.6	38.6	87	35.1	3	5	248	0.00	29.875 
19:35	38.6	38.6	38.6	86	34.8	3	9	248	0.00	29.875 
19:40	38.6	35.7	38.6	86	34.8	4	10	248	0.00	29.875 
19:45	38.8	35.9	38.8	85	34.7	4	9	248	0.00	29.879 
19:50	38.8	35.9	38.8	85	34.7	4	10	248	0.00	29.879 
19:55	38.8	35.9	38.8	85	34.7	4	12	248	0.00	29.879 
20:00	38.8	35.9	38.8	85	34.7	4	12	248	0.00	29.881 
20:05	38.6	38.6	38.6	85	34.5	3	10	248	0.00	29.881 
20:10	38.5	38.5	38.5	84	34.1	3	7	248	0.00	29.881 
20:15	38.3	35.4	38.3	84	33.9	4	8	248	0.00	29.886 
20:20	38.2	35.2	38.2	85	34.1	4	12	270	0.00	29.886 
20:25	38.0	38.0	38.0	85	33.9	2	10	270	0.00	29.886 
20:30	37.9	34.9	37.9	85	33.8	4	10	248	0.00	29.883 
20:35	37.8	37.8	37.8	85	33.7	3	8	248	0.00	29.883 
20:40	37.8	37.8	37.8	86	34.0	2	6	248	0.00	29.883 
20:45	37.6	37.6	37.6	86	33.8	2	7	248	0.00	29.884 
20:50	37.3	37.3	37.3	86	33.5	1	3	248	0.00	29.884 
20:55	37.2	37.2	37.2	87	33.7	2	5	248	0.00	29.884 
21:00	37.0	37.0	37.0	87	33.5	2	5	248	0.00	29.885 
21:05	36.9	36.9	36.9	87	33.4	2	9	248	0.00	29.885 
21:10	36.8	36.8	36.8	87	33.3	1	5	248	0.00	29.885 
21:15	36.6	36.6	36.6	87	33.1	1	3	248	0.00	29.878 
21:20	36.5	36.5	36.5	88	33.3	1	5	248	0.00	29.878 
21:25	36.5	36.5	36.5	88	33.3	1	4	225	0.00	29.878 
21:30	36.3	36.3	36.3	88	33.1	1	4	248	0.00	29.877 
21:35	36.2	36.2	36.2	88	33.0	1	4	248	0.00	29.877 
21:40	36.0	36.0	36.0	88	32.8	1	3	248	0.00	29.877 
21:45	36.0	36.0	36.0	88	32.8	1	4	248	0.00	29.874 
21:50	36.0	36.0	36.0	88	32.8	1	4	248	0.00	29.874 
21:55	36.0	36.0	36.0	88	32.8	1	4	270	0.00	29.874 
22:00	35.9	35.9	35.9	88	32.7	1	4	248	0.00	29.873 
22:05	35.8	35.8	35.8	88	32.6	0	2	248	0.00	29.873 
22:10	35.8	35.8	35.8	88	32.6	1	4	248	0.00	29.873 
22:15	35.6	35.6	35.6	88	32.4	1	3	248	0.00	29.873 
22:20	35.6	35.6	35.6	88	32.4	1	3	248	0.00	29.873 
22:25	35.5	35.5	35.5	89	32.6	0	2	270	0.00	29.873 
22:30	35.3	35.3	35.3	89	32.4	1	2	270	0.00	29.864 
22:35	35.3	35.3	35.3	89	32.4	1	3	270	0.00	29.864 
22:40	35.2	35.2	35.2	89	32.3	0	2	202	0.00	29.864 
22:45	35.3	35.3	35.3	89	32.4	1	2	338	0.00	29.858 
22:50	35.2	35.2	35.2	89	32.3	1	3	338	0.00	29.858 
22:55	35.2	35.2	35.2	89	32.3	1	3	270	0.00	29.858 
23:00	35.3	35.3	35.3	89	32.4	1	3	270	0.00	29.852 
23:05	35.5	35.5	35.5	89	32.6	2	5	248	0.00	29.852 
23:10	35.6	35.6	35.6	88	32.4	1	3	22	0.00	29.852 
23:15	35.8	35.8	35.8	88	32.6	1	5	248	0.00	29.850 
23:20	35.9	35.9	35.9	88	32.7	2	4	248	0.00	29.850 
23:25	36.0	36.0	36.0	87	32.5	1	5	248	0.00	29.850 
23:30	36.2	36.2	36.2	86	32.4	2	6	248	0.00	29.848 
23:35	36.3	36.3	36.3	86	32.5	2	5	248	0.00	29.848 
23:40	36.5	36.5	36.5	85	32.4	2	4	248	0.00	29.848 
23:45	36.6	36.6	36.6	84	32.2	3	6	248	0.00	29.846 
23:50	36.8	36.8	36.8	84	32.4	2	4	248	0.00	29.846 
23:55	36.8	36.8	36.8	84	32.4	2	4	248	0.00	29.846 

CoCoRaHS
IN-AL-39
A2 Web Hosting
Creative Commons License
GoDaddy
Look for:

loaded 2017-12-12 14:52:22 • last modified 2010-11-18 10:43:29
Privacy PolicyDisclaimer
• wx.awcolley.com is powered by PmWiki v.2002016 •
• all content (unless otherwise noted) © 2017 A W Colley